Time;durP1;ratioP1;P1;durP2;ratioP2;P2;SDS_P1;SDS_P2;PMS_P1;PMS_P2;Temp;Humidity;BMP_temperature;BMP_pressure;BME280_temperature;BME280_humidity;BME280_pressure;Samples;Min_cycle;Max_cycle;Signal;HPM_P1;HPM_P2
2022/04/02 00:00:39;;;;;;;31.88;17.80;;;;;;;-0.88;100.00;98664.72;4963445;28;20485;-52
2022/04/02 00:03:05;;;;;;;25.65;15.93;;;;;;;-0.91;100.00;98662.47;4967264;28;20043;-50
2022/04/02 00:05:31;;;;;;;28.55;15.70;;;;;;;-0.90;100.00;98658.81;4966600;28;20297;-51
2022/04/02 00:07:56;;;;;;;27.30;15.85;;;;;;;-0.93;100.00;98669.72;4973024;28;20117;-52
2022/04/02 00:10:22;;;;;;;26.25;16.10;;;;;;;-0.90;100.00;98661.47;4962442;28;20042;-52
2022/04/02 00:12:47;;;;;;;26.80;14.77;;;;;;;-0.87;100.00;98663.75;4967802;28;20030;-51
2022/04/02 00:15:13;;;;;;;27.08;15.20;;;;;;;-0.93;100.00;98664.47;4953829;28;20038;-54
2022/04/02 00:17:38;;;;;;;24.67;14.85;;;;;;;-0.98;100.00;98651.03;4963965;28;20031;-51
2022/04/02 00:20:04;;;;;;;23.90;13.63;;;;;;;-0.96;100.00;98659.56;4966574;28;20031;-51
2022/04/02 00:22:30;;;;;;;25.33;13.50;;;;;;;-0.95;100.00;98663.81;4962672;28;20505;-54
2022/04/02 00:24:56;;;;;;;31.23;15.00;;;;;;;-1.08;100.00;98662.63;4964305;28;20039;-52
2022/04/02 00:27:21;;;;;;;20.02;12.48;;;;;;;-1.05;100.00;98660.66;4954261;28;20042;-51
2022/04/02 00:29:47;;;;;;;24.45;13.77;;;;;;;-1.15;100.00;98669.66;4958431;28;20030;-54
2022/04/02 00:32:12;;;;;;;19.58;11.00;;;;;;;-1.18;100.00;98667.34;4966671;28;20481;-52
2022/04/02 00:34:38;;;;;;;24.60;13.98;;;;;;;-1.12;100.00;98671.91;4966384;28;20357;-53
2022/04/02 00:37:04;;;;;;;22.70;11.68;;;;;;;-1.00;100.00;98667.03;4965980;28;20043;-50
2022/04/02 00:39:30;;;;;;;18.80;10.98;;;;;;;-1.17;100.00;98676.91;4970630;28;20037;-51
2022/04/02 00:41:55;;;;;;;23.73;13.38;;;;;;;-1.16;100.00;98667.19;4962688;28;20521;-49
2022/04/02 00:44:21;;;;;;;17.63;10.35;;;;;;;-1.05;100.00;98666.72;4964392;28;20031;-49
2022/04/02 00:46:47;;;;;;;17.88;11.50;;;;;;;-1.11;100.00;98663.00;4964257;28;20404;-50
2022/04/02 00:49:14;;;;;;;20.70;13.00;;;;;;;-1.12;100.00;98665.84;4966435;28;20030;-51
2022/04/02 00:51:43;;;;;;;19.75;11.25;;;;;;;-1.15;100.00;98666.19;4968492;28;20101;-53
2022/04/02 00:54:10;;;;;;;18.98;11.20;;;;;;;-1.12;100.00;98671.91;4968562;28;20229;-50
2022/04/02 00:56:37;;;;;;;23.25;11.75;;;;;;;-1.17;100.00;98669.00;4968077;28;20062;-50
2022/04/02 00:59:02;;;;;;;23.55;13.45;;;;;;;-1.09;100.00;98671.53;4968547;28;20042;-50
2022/04/02 01:01:28;;;;;;;26.20;15.48;;;;;;;-1.14;100.00;98671.28;4963773;28;20612;-51
2022/04/02 01:03:53;;;;;;;34.70;16.58;;;;;;;-1.12;100.00;98671.09;4963791;28;20041;-52
2022/04/02 01:06:19;;;;;;;31.70;16.00;;;;;;;-1.10;100.00;98672.56;4957490;28;20397;-49
2022/04/02 01:08:44;;;;;;;23.63;13.88;;;;;;;-1.01;100.00;98675.09;4965063;28;20197;-54
2022/04/02 01:11:10;;;;;;;22.98;12.07;;;;;;;-1.03;100.00;98677.88;4969563;28;20047;-51
2022/04/02 01:13:35;;;;;;;23.73;14.05;;;;;;;-1.02;100.00;98673.44;4969572;28;20045;-51
2022/04/02 01:16:01;;;;;;;19.88;11.90;;;;;;;-1.11;100.00;98683.25;4962162;28;20604;-52
2022/04/02 01:18:27;;;;;;;14.75;9.45;;;;;;;-1.12;100.00;98677.16;4963467;28;20042;-50
2022/04/02 01:20:53;;;;;;;19.58;11.48;;;;;;;-1.26;100.00;98693.75;4959714;28;20071;-51
2022/04/02 01:23:19;;;;;;;15.65;10.98;;;;;;;-1.23;100.00;98698.63;4964930;28;20097;-52
2022/04/02 01:25:45;;;;;;;15.10;8.98;;;;;;;-1.27;100.00;98699.16;4969273;28;20060;-50
2022/04/02 01:28:10;;;;;;;16.15;9.75;;;;;;;-1.33;100.00;98705.97;4964860;28;20037;-50
2022/04/02 01:30:35;;;;;;;15.48;9.48;;;;;;;-1.21;100.00;98699.28;4966467;28;20497;-50
2022/04/02 01:33:01;;;;;;;11.95;8.02;;;;;;;-1.28;100.00;98703.63;4963362;28;20061;-50
2022/04/02 01:35:26;;;;;;;17.35;11.30;;;;;;;-1.14;100.00;98704.66;4965607;28;20043;-50
2022/04/02 01:37:52;;;;;;;17.42;10.25;;;;;;;-1.22;100.00;98702.91;4969131;28;20041;-53
2022/04/02 01:40:17;;;;;;;14.70;10.27;;;;;;;-1.19;100.00;98702.56;4969755;28;20031;-54
2022/04/02 01:42:43;;;;;;;18.40;10.55;;;;;;;-1.39;100.00;98704.88;4967308;28;20026;-52
2022/04/02 01:45:09;;;;;;;16.33;8.07;;;;;;;-1.38;100.00;98703.06;4962194;28;20030;-50
2022/04/02 01:47:35;;;;;;;15.63;10.32;;;;;;;-1.41;100.00;98704.22;4957962;28;20034;-50
2022/04/02 01:50:00;;;;;;;17.50;10.98;;;;;;;-1.37;100.00;98707.34;4969226;28;20440;-52
2022/04/02 01:52:26;;;;;;;14.13;9.43;;;;;;;-1.50;100.00;98704.47;4968575;28;20055;-52
2022/04/02 01:54:51;;;;;;;18.17;10.93;;;;;;;-1.47;100.00;98696.22;4957971;28;20038;-52
2022/04/02 01:57:17;;;;;;;17.88;9.02;;;;;;;-1.39;100.00;98693.56;4966274;28;20476;-50
2022/04/02 01:59:44;;;;;;;11.60;7.75;;;;;;;-1.47;100.00;98698.88;4956879;28;20046;-53
2022/04/02 02:02:10;;;;;;;14.27;9.70;;;;;;;-1.52;100.00;98702.84;4952701;28;20477;-50
2022/04/02 02:04:36;;;;;;;10.48;6.25;;;;;;;-1.54;100.00;98706.66;4968582;28;20247;-50
2022/04/02 02:07:06;;;;;;;12.15;7.85;;;;;;;-1.52;100.00;98694.97;4966471;28;20126;-52
2022/04/02 02:09:33;;;;;;;12.47;7.83;;;;;;;-1.39;100.00;98698.81;4964572;28;20039;-51
2022/04/02 02:11:58;;;;;;;12.82;6.53;;;;;;;-1.49;100.00;98693.00;4964892;28;20048;-53
2022/04/02 02:14:23;;;;;;;14.57;8.93;;;;;;;-1.42;100.00;98707.03;4964080;28;20042;-52
2022/04/02 02:16:49;;;;;;;11.95;7.28;;;;;;;-1.38;100.00;98703.88;4966371;28;20053;-53
2022/04/02 02:19:15;;;;;;;16.75;9.48;;;;;;;-1.52;100.00;98697.59;4962208;28;20027;-51
2022/04/02 02:21:40;;;;;;;17.88;7.45;;;;;;;-1.54;100.00;98710.09;4963002;28;20054;-51
2022/04/02 02:24:06;;;;;;;12.13;7.05;;;;;;;-1.46;100.00;98711.03;4967835;28;20046;-50
2022/04/02 02:26:34;;;;;;;11.65;6.30;;;;;;;-1.48;100.00;98697.25;4967806;28;20133;-50
2022/04/02 02:28:59;;;;;;;16.23;7.40;;;;;;;-1.41;100.00;98708.69;4968601;28;20072;-51
2022/04/02 02:31:25;;;;;;;13.73;6.90;;;;;;;-1.41;100.00;98719.19;4960293;28;20043;-51
2022/04/02 02:36:34;;;;;;;13.80;8.23;;;;;;;-1.43;100.00;98723.81;4959005;28;20061;-52
2022/04/02 02:39:00;;;;;;;12.10;7.15;;;;;;;-1.34;100.00;98730.63;4954775;28;20434;-52
2022/04/02 02:41:25;;;;;;;16.83;7.70;;;;;;;-1.46;100.00;98718.91;4963280;28;20383;-51
2022/04/02 02:43:51;;;;;;;13.77;7.25;;;;;;;-1.43;100.00;98723.81;4958484;28;20424;-50
2022/04/02 02:46:17;;;;;;;12.63;8.48;;;;;;;-1.43;100.00;98726.44;4963205;28;20042;-53
2022/04/02 02:48:46;;;;;;;14.38;8.15;;;;;;;-1.49;100.00;98732.41;4960163;28;20030;-52
2022/04/02 02:51:12;;;;;;;12.98;8.27;;;;;;;-1.41;100.00;98735.78;4964075;28;20054;-53
2022/04/02 02:53:37;;;;;;;15.65;8.65;;;;;;;-1.44;100.00;98724.81;4968185;28;20511;-54
2022/04/02 02:56:03;;;;;;;16.05;9.45;;;;;;;-1.49;100.00;98737.69;4962106;28;20454;-52
2022/04/02 02:58:28;;;;;;;16.42;10.10;;;;;;;-1.46;100.00;98732.06;4968205;28;20134;-53
2022/04/02 03:00:54;;;;;;;15.38;8.40;;;;;;;-1.45;100.00;98734.50;4939156;28;20043;-53
2022/04/02 03:03:19;;;;;;;13.68;8.73;;;;;;;-1.50;100.00;98736.03;4962503;28;20026;-51
2022/04/02 03:05:46;;;;;;;19.52;11.40;;;;;;;-1.43;100.00;98732.50;4963927;28;20501;-51
2022/04/02 03:08:12;;;;;;;15.23;9.98;;;;;;;-1.32;100.00;98745.25;4968142;28;20109;-53
2022/04/02 03:10:37;;;;;;;18.63;9.18;;;;;;;-1.36;100.00;98748.41;4967607;28;20035;-52
2022/04/02 03:13:03;;;;;;;16.27;10.15;;;;;;;-1.44;100.00;98748.47;4961180;28;20780;-50
2022/04/02 03:15:28;;;;;;;18.63;10.75;;;;;;;-1.44;100.00;98743.22;4965644;28;20378;-53
2022/04/02 03:17:54;;;;;;;15.82;8.68;;;;;;;-1.46;100.00;98748.66;4957232;28;20142;-50
2022/04/02 03:20:20;;;;;;;18.13;10.75;;;;;;;-1.43;100.00;98748.28;4965152;28;20386;-52
2022/04/02 03:22:46;;;;;;;16.38;9.98;;;;;;;-1.42;100.00;98765.72;4966803;28;20038;-53
2022/04/02 03:25:15;;;;;;;19.60;8.77;;;;;;;-1.37;100.00;98762.56;4957575;28;20062;-52
2022/04/02 03:27:43;;;;;;;13.05;8.10;;;;;;;-1.39;100.00;98759.28;4967595;28;20023;-53
2022/04/02 03:30:09;;;;;;;17.15;7.97;;;;;;;-1.48;100.00;98770.84;4957361;28;20387;-51
2022/04/02 03:32:35;;;;;;;13.90;8.50;;;;;;;-1.42;100.00;98770.13;4964694;28;20183;-51
2022/04/02 03:35:00;;;;;;;13.07;7.70;;;;;;;-1.46;100.00;98763.59;4964004;28;20035;-52
2022/04/02 03:37:26;;;;;;;15.35;7.38;;;;;;;-1.40;100.00;98768.13;4965892;28;20496;-51
2022/04/02 03:39:52;;;;;;;18.55;7.85;;;;;;;-1.49;100.00;98763.97;4967693;28;20034;-52
2022/04/02 03:42:18;;;;;;;12.85;8.13;;;;;;;-1.58;100.00;98769.25;4963510;28;20082;-52
2022/04/02 03:44:44;;;;;;;12.43;7.18;;;;;;;-1.51;100.00;98772.00;4962461;28;20035;-51
2022/04/02 03:47:09;;;;;;;12.77;7.00;;;;;;;-1.45;100.00;98768.66;4959997;28;20051;-51
2022/04/02 03:49:42;;;;;;;10.70;6.50;;;;;;;-1.27;100.00;98771.00;4966374;28;20477;-51
2022/04/02 03:52:07;;;;;;;12.23;7.28;;;;;;;-1.31;100.00;98772.34;4944392;28;20047;-50
2022/04/02 03:54:36;;;;;;;16.20;7.45;;;;;;;-1.53;100.00;98774.81;4967631;28;20031;-52
2022/04/02 03:57:03;;;;;;;10.88;6.07;;;;;;;-1.46;100.00;98774.13;4964320;28;20129;-52
2022/04/02 03:59:29;;;;;;;12.00;7.65;;;;;;;-1.45;100.00;98775.75;4945450;28;20057;-52
2022/04/02 04:01:55;;;;;;;13.98;7.82;;;;;;;-1.49;100.00;98779.72;4967137;28;20097;-51
2022/04/02 04:04:20;;;;;;;11.85;6.57;;;;;;;-1.48;100.00;98776.91;4963118;28;20035;-51
2022/04/02 04:06:47;;;;;;;13.27;6.03;;;;;;;-1.49;100.00;98785.00;4962885;28;20051;-52
2022/04/02 04:09:12;;;;;;;15.98;8.60;;;;;;;-1.55;100.00;98782.06;4957931;28;20043;-51
2022/04/02 04:11:38;;;;;;;11.23;5.95;;;;;;;-1.46;100.00;98784.63;4974974;28;20043;-51
2022/04/02 04:14:04;;;;;;;13.77;8.23;;;;;;;-1.56;100.00;98784.88;4960005;28;20046;-51
2022/04/02 04:16:30;;;;;;;14.48;8.35;;;;;;;-1.58;100.00;98785.03;4968430;28;20440;-50
2022/04/02 04:18:55;;;;;;;12.57;6.28;;;;;;;-1.61;100.00;98781.94;4970639;28;20058;-50
2022/04/02 04:21:20;;;;;;;13.40;7.13;;;;;;;-1.78;100.00;98789.09;4957633;28;20059;-51
2022/04/02 04:23:46;;;;;;;16.75;7.50;;;;;;;-1.84;100.00;98788.00;4964694;28;20039;-50
2022/04/02 04:26:12;;;;;;;15.90;8.18;;;;;;;-1.75;100.00;98797.47;4965744;28;20035;-53
2022/04/02 04:28:37;;;;;;;14.73;9.02;;;;;;;-1.83;100.00;98789.63;4966398;28;20113;-50
2022/04/02 04:31:04;;;;;;;19.55;10.07;;;;;;;-1.75;100.00;98796.63;4966561;28;20382;-54
2022/04/02 04:33:30;;;;;;;11.95;7.70;;;;;;;-1.81;100.00;98792.91;4965703;28;20113;-51
2022/04/02 04:35:55;;;;;;;17.27;9.73;;;;;;;-1.80;100.00;98805.06;4962815;28;20107;-51
2022/04/02 04:38:20;;;;;;;11.63;7.53;;;;;;;-1.87;100.00;98811.16;4959681;28;20144;-53
2022/04/02 04:40:46;;;;;;;16.75;9.82;;;;;;;-1.82;100.00;98807.03;4966540;28;20055;-52
2022/04/02 04:43:11;;;;;;;18.00;10.32;;;;;;;-1.75;100.00;98812.41;4963570;28;20050;-53
2022/04/02 04:45:37;;;;;;;15.77;8.10;;;;;;;-1.82;100.00;98816.72;4960116;28;20039;-53
2022/04/02 04:48:03;;;;;;;12.55;9.05;;;;;;;-1.83;100.00;98810.66;4968933;28;20027;-52
2022/04/02 04:50:28;;;;;;;15.88;7.85;;;;;;;-1.82;100.00;98817.56;4969967;28;20051;-54
2022/04/02 04:52:53;;;;;;;15.45;8.13;;;;;;;-1.81;100.00;98824.44;4966296;28;20023;-50
2022/04/02 04:55:19;;;;;;;19.92;8.93;;;;;;;-1.84;100.00;98829.22;4962136;28;20023;-52
2022/04/02 04:57:44;;;;;;;16.83;8.65;;;;;;;-1.78;100.00;98833.78;4970407;28;20034;-53
2022/04/02 05:00:10;;;;;;;15.50;9.30;;;;;;;-1.88;100.00;98833.19;4959854;28;20034;-51
2022/04/02 05:02:35;;;;;;;15.30;8.85;;;;;;;-1.82;100.00;98835.94;4959553;28;20062;-54
2022/04/02 05:05:01;;;;;;;16.48;6.30;;;;;;;-1.94;100.00;98844.38;4957983;28;20103;-53
2022/04/02 05:07:26;;;;;;;14.93;8.40;;;;;;;-1.96;100.00;98834.84;4965793;28;20027;-53
2022/04/02 05:09:52;;;;;;;13.38;7.70;;;;;;;-1.99;100.00;98835.19;4968401;28;20019;-54
2022/04/02 05:12:18;;;;;;;14.80;7.95;;;;;;;-2.05;100.00;98842.94;4967857;28;20047;-53
2022/04/02 05:14:43;;;;;;;14.38;7.60;;;;;;;-1.99;100.00;98844.91;4968181;28;20179;-51
2022/04/02 05:17:09;;;;;;;15.55;7.65;;;;;;;-2.08;100.00;98843.28;4964110;28;20413;-51
2022/04/02 05:19:34;;;;;;;16.65;8.40;;;;;;;-1.92;100.00;98842.38;4969355;28;20077;-53
2022/04/02 05:22:01;;;;;;;13.98;8.02;;;;;;;-2.01;100.00;98845.06;4963030;28;20050;-51
2022/04/02 05:24:26;;;;;;;10.70;5.82;;;;;;;-1.95;100.00;98851.41;4965912;28;20705;-52
2022/04/02 05:26:52;;;;;;;16.85;6.85;;;;;;;-2.00;100.00;98851.97;4964417;28;20062;-52
2022/04/02 05:29:17;;;;;;;18.10;8.73;;;;;;;-1.99;100.00;98860.66;4967421;28;20039;-51
2022/04/02 05:31:43;;;;;;;14.20;7.70;;;;;;;-2.01;100.00;98858.19;4960886;28;20102;-51
2022/04/02 05:34:09;;;;;;;13.77;7.00;;;;;;;-1.92;100.00;98858.13;4968592;28;20062;-50
2022/04/02 05:36:35;;;;;;;13.52;7.72;;;;;;;-1.87;100.00;98861.06;4968977;28;20042;-52
2022/04/02 05:39:00;;;;;;;18.90;7.30;;;;;;;-1.94;100.00;98874.09;4972038;28;20058;-50
2022/04/02 05:41:26;;;;;;;14.55;8.32;;;;;;;-2.03;100.00;98868.03;4966005;28;20049;-50
2022/04/02 05:43:51;;;;;;;17.13;8.77;;;;;;;-1.91;100.00;98875.56;4965352;28;20040;-52
2022/04/02 05:46:17;;;;;;;12.60;7.35;;;;;;;-1.87;100.00;98882.94;4958290;28;20046;-51
2022/04/02 05:48:42;;;;;;;10.88;6.30;;;;;;;-1.90;100.00;98878.00;4969486;28;20042;-54
2022/04/02 05:51:08;;;;;;;19.25;8.50;;;;;;;-1.73;100.00;98884.00;4968896;28;20168;-51
2022/04/02 05:53:34;;;;;;;17.65;8.27;;;;;;;-1.75;100.00;98888.59;4958529;28;20042;-52
2022/04/02 05:55:59;;;;;;;13.82;8.40;;;;;;;-1.73;100.00;98889.25;4960945;28;20051;-49
2022/04/02 05:58:25;;;;;;;13.38;7.22;;;;;;;-1.68;100.00;98892.19;4962495;28;20031;-50
2022/04/02 06:00:50;;;;;;;14.10;7.45;;;;;;;-1.44;100.00;98896.50;4964423;28;20030;-52
2022/04/02 06:03:16;;;;;;;15.48;8.40;;;;;;;-1.49;100.00;98898.03;4962259;28;20484;-52
2022/04/02 06:05:41;;;;;;;15.00;7.82;;;;;;;-1.54;100.00;98906.41;4968066;28;20059;-53
2022/04/02 06:08:07;;;;;;;18.75;11.55;;;;;;;-1.37;100.00;98902.72;4966179;28;20074;-49
2022/04/02 06:10:32;;;;;;;20.50;10.43;;;;;;;-1.49;100.00;98905.91;4966393;28;20043;-52
2022/04/02 06:12:58;;;;;;;38.65;25.08;;;;;;;-1.52;100.00;98912.31;4959357;28;20038;-50
2022/04/02 06:15:24;;;;;;;18.17;11.80;;;;;;;-1.41;100.00;98908.47;4966756;28;20486;-50
2022/04/02 06:17:51;;;;;;;16.40;10.18;;;;;;;-1.46;100.00;98916.06;4965809;28;20473;-51
2022/04/02 06:20:16;;;;;;;17.67;10.40;;;;;;;-1.49;100.00;98911.16;4957992;28;20030;-50
2022/04/02 06:22:42;;;;;;;13.82;8.57;;;;;;;-1.28;100.00;98919.25;4968441;28;20046;-51
2022/04/02 06:25:08;;;;;;;14.95;9.93;;;;;;;-1.38;100.00;98929.16;4967815;28;20035;-53
2022/04/02 06:27:46;;;;;;;21.45;11.07;;;;;;;-1.34;100.00;98930.47;4962223;28;20105;-52
2022/04/02 06:30:17;;;;;;;19.35;11.02;;;;;;;-1.31;100.00;98928.28;4964800;28;20453;-54
2022/04/02 06:32:42;;;;;;;24.00;13.27;;;;;;;-1.21;100.00;98932.53;4956310;28;20105;-51
2022/04/02 06:35:08;;;;;;;25.77;13.10;;;;;;;-1.20;100.00;98927.09;4958469;28;20053;-53
2022/04/02 06:37:34;;;;;;;19.42;11.88;;;;;;;-1.25;100.00;98933.84;4956655;28;20111;-51
2022/04/02 06:40:00;;;;;;;26.48;14.70;;;;;;;-1.17;100.00;98929.38;4958693;28;20026;-53
2022/04/02 06:42:25;;;;;;;31.13;15.43;;;;;;;-1.02;100.00;98939.13;4961998;28;20071;-53
2022/04/02 06:44:51;;;;;;;26.55;14.98;;;;;;;-1.15;100.00;98939.69;4961713;28;20034;-53
2022/04/02 06:47:16;;;;;;;23.95;14.55;;;;;;;-1.19;100.00;98933.97;4954285;28;20046;-50
2022/04/02 06:49:41;;;;;;;25.23;14.65;;;;;;;-1.17;100.00;98941.72;4959316;28;20097;-51
2022/04/02 06:52:07;;;;;;;20.50;13.48;;;;;;;-1.24;100.00;98946.03;4955618;28;20111;-52
2022/04/02 06:54:33;;;;;;;28.08;14.13;;;;;;;-1.20;100.00;98948.13;4964496;28;20038;-51
2022/04/02 06:56:59;;;;;;;38.58;18.00;;;;;;;-1.10;100.00;98955.78;4961255;28;20059;-51
2022/04/02 06:59:24;;;;;;;75.00;30.55;;;;;;;-1.01;100.00;98956.56;4963025;28;20034;-51
2022/04/02 07:01:50;;;;;;;54.35;22.88;;;;;;;-0.97;100.00;98963.13;4965894;28;20458;-53
2022/04/02 07:04:15;;;;;;;70.10;28.85;;;;;;;-0.91;100.00;98965.03;4963226;28;20102;-51
2022/04/02 07:06:44;;;;;;;21.80;12.90;;;;;;;-0.88;100.00;98962.06;4963089;28;20042;-53
2022/04/02 07:09:10;;;;;;;29.58;16.15;;;;;;;-0.71;100.00;98968.84;4962588;28;20157;-51
2022/04/02 07:11:36;;;;;;;22.70;14.15;;;;;;;-0.69;99.70;98974.75;4963691;28;20046;-49
2022/04/02 07:14:01;;;;;;;33.30;15.63;;;;;;;-0.61;98.87;98970.41;4966434;28;20441;-51
2022/04/02 07:16:28;;;;;;;23.83;12.88;;;;;;;-0.70;98.43;98970.50;4966820;28;20623;-52
2022/04/02 07:18:54;;;;;;;21.88;12.93;;;;;;;-0.77;99.14;98979.28;4963277;28;20050;-53
2022/04/02 07:21:20;;;;;;;21.88;12.45;;;;;;;-0.64;99.29;98982.13;4965334;28;20393;-49
2022/04/02 07:23:46;;;;;;;20.55;12.13;;;;;;;-0.76;99.35;98981.72;4965569;28;20031;-50
2022/04/02 07:26:11;;;;;;;26.25;15.02;;;;;;;-0.43;99.81;98989.34;4962702;28;20050;-49
2022/04/02 07:28:37;;;;;;;28.30;15.20;;;;;;;-0.71;98.83;98984.63;4966079;28;20421;-50
2022/04/02 07:31:02;;;;;;;20.27;13.23;;;;;;;-0.76;99.19;98992.22;4964548;28;20043;-51
2022/04/02 07:33:28;;;;;;;21.50;12.90;;;;;;;-0.46;98.84;98987.06;4957957;28;20046;-52
2022/04/02 07:35:54;;;;;;;26.02;15.75;;;;;;;-0.44;98.82;99003.53;4961014;28;20043;-51
2022/04/02 07:38:22;;;;;;;22.33;14.32;;;;;;;-0.40;98.05;99002.19;4963022;28;20350;-51
2022/04/02 07:40:54;;;;;;;23.42;13.80;;;;;;;-0.62;97.44;99003.81;4966438;28;20066;-49
2022/04/02 07:43:26;;;;;;;25.83;14.20;;;;;;;-0.63;98.24;99007.44;4969351;28;20034;-51
2022/04/02 07:45:57;;;;;;;21.45;11.43;;;;;;;-0.56;97.75;99012.81;4960599;28;20043;-52
2022/04/02 07:48:23;;;;;;;15.07;9.90;;;;;;;-0.90;97.53;99008.75;4961541;28;20474;-53
2022/04/02 07:50:48;;;;;;;19.83;11.70;;;;;;;-0.63;97.54;99019.78;4965805;28;20054;-51
2022/04/02 07:53:23;;;;;;;17.58;11.27;;;;;;;-0.76;97.30;99018.56;4969825;28;20374;-50
2022/04/02 07:55:50;;;;;;;23.00;12.07;;;;;;;-0.54;97.34;99031.91;4970308;28;20399;-51
2022/04/02 07:58:16;;;;;;;16.17;9.45;;;;;;;-0.33;94.94;99028.59;4966876;28;20023;-52
2022/04/02 08:00:41;;;;;;;18.38;11.88;;;;;;;-0.62;95.14;99026.69;4968865;28;20051;-50
2022/04/02 08:03:08;;;;;;;20.58;13.00;;;;;;;-0.79;94.93;99013.66;4953159;28;20038;-50
2022/04/02 08:05:33;;;;;;;20.65;11.02;;;;;;;-0.35;95.55;99026.16;4964810;28;20054;-49
2022/04/02 08:07:59;;;;;;;27.40;14.35;;;;;;;0.11;95.04;99031.34;4961439;28;20027;-52
2022/04/02 08:10:28;;;;;;;28.42;15.80;;;;;;;-0.39;93.71;99026.69;4968309;28;20074;-53
2022/04/02 08:12:55;;;;;;;25.30;18.10;;;;;;;-0.42;95.18;99030.50;4963892;28;20079;-51
2022/04/02 08:15:21;;;;;;;24.63;10.60;;;;;;;-0.30;95.04;99036.16;4959783;28;20382;-50
2022/04/02 08:17:54;;;;;;;26.30;11.38;;;;;;;-0.20;93.75;99043.81;4958298;28;20042;-53
2022/04/02 08:20:19;;;;;;;22.10;11.35;;;;;;;-0.13;92.84;99042.91;4969301;28;20035;-51
2022/04/02 08:22:45;;;;;;;20.58;10.77;;;;;;;-0.04;92.50;99043.69;4960664;28;20062;-51
2022/04/02 08:25:11;;;;;;;22.38;10.00;;;;;;;0.10;91.36;99048.16;4969417;28;20109;-51
2022/04/02 08:27:45;;;;;;;19.98;12.10;;;;;;;-0.23;91.48;99055.53;4964229;28;20480;-50
2022/04/02 08:30:22;;;;;;;17.63;11.10;;;;;;;0.04;92.02;99051.50;4962477;28;20452;-51
2022/04/02 08:32:57;;;;;;;21.88;12.82;;;;;;;0.36;92.36;99065.38;4961221;28;20038;-50
2022/04/02 08:35:28;;;;;;;16.35;9.75;;;;;;;0.18;89.98;99063.91;4963714;28;20091;-49
2022/04/02 08:38:17;;;;;;;24.33;15.15;;;;;;;0.05;90.35;99071.59;4961914;28;20063;-50
2022/04/02 08:41:13;;;;;;;20.48;10.10;;;;;;;-0.02;90.00;99074.13;4964182;28;20365;-50
2022/04/02 08:44:22;;;;;;;19.98;11.65;;;;;;;-0.11;89.76;99074.38;4965465;28;20038;-52
2022/04/02 08:47:11;;;;;;;25.05;14.20;;;;;;;-0.16;91.36;99082.78;4965651;28;20134;-55
2022/04/02 08:50:05;;;;;;;19.40;10.57;;;;;;;-0.14;89.92;99080.00;4969742;28;20046;-51
2022/04/02 08:52:52;;;;;;;20.33;11.45;;;;;;;0.36;89.58;99075.94;4968998;28;20039;-51
2022/04/02 08:55:21;;;;;;;27.05;11.90;;;;;;;0.08;88.51;99083.59;4964151;28;20407;-50
2022/04/02 08:57:52;;;;;;;26.88;13.70;;;;;;;0.42;88.13;99085.75;4961579;28;20129;-49
2022/04/02 09:00:24;;;;;;;18.75;10.63;;;;;;;0.06;86.65;99089.03;4966955;28;20038;-50
2022/04/02 09:03:24;;;;;;;14.30;8.73;;;;;;;0.14;85.43;99088.16;4959806;28;20099;-54
2022/04/02 09:06:23;;;;;;;22.45;12.48;;;;;;;0.19;86.61;99091.88;4962803;28;20047;-52
2022/04/02 09:09:07;;;;;;;12.93;8.40;;;;;;;0.48;84.93;99098.22;4964542;28;20043;-53
2022/04/02 09:11:39;;;;;;;14.68;8.77;;;;;;;0.45;85.01;99097.75;4964708;28;20109;-53
2022/04/02 09:14:31;;;;;;;17.65;10.73;;;;;;;0.68;85.72;99101.13;4965668;28;20457;-54
2022/04/02 09:17:03;;;;;;;18.90;10.57;;;;;;;0.62;84.86;99102.69;4964108;28;20497;-51
2022/04/02 09:19:54;;;;;;;18.23;10.70;;;;;;;0.87;85.85;99105.03;4968627;28;20037;-54
2022/04/02 09:22:38;;;;;;;14.45;8.23;;;;;;;0.42;84.30;99114.75;4967565;28;20108;-51
2022/04/02 09:25:17;;;;;;;18.20;10.27;;;;;;;0.37;85.29;99109.19;4963011;28;20034;-51
2022/04/02 09:28:00;;;;;;;15.88;9.82;;;;;;;0.38;86.10;99111.66;4964244;28;20093;-51
2022/04/02 09:30:37;;;;;;;17.15;10.38;;;;;;;0.53;84.91;99118.78;4962486;28;20066;-51
2022/04/02 09:33:24;;;;;;;21.63;12.65;;;;;;;0.49;84.70;99117.50;4962412;28;20039;-51
2022/04/02 09:36:02;;;;;;;39.78;17.05;;;;;;;0.25;85.30;99119.38;4961785;28;20101;-52
2022/04/02 09:38:45;;;;;;;21.38;12.82;;;;;;;0.35;86.42;99119.09;4966392;28;20039;-50
2022/04/02 09:41:36;;;;;;;15.18;9.43;;;;;;;0.29;87.00;99120.63;4964331;28;20130;-52
2022/04/02 09:44:40;;;;;;;15.07;9.32;;;;;;;0.25;85.71;99121.16;4947704;28;20046;-49
2022/04/02 09:47:26;;;;;;;13.23;8.85;;;;;;;0.75;84.43;99123.16;4965070;28;20043;-52
2022/04/02 09:50:10;;;;;;;15.45;8.30;;;;;;;0.76;83.17;99137.16;4948879;28;20370;-50
2022/04/02 09:53:00;;;;;;;17.73;9.27;;;;;;;0.89;82.93;99134.69;4965571;28;20046;-52
2022/04/02 09:55:30;;;;;;;23.33;10.27;;;;;;;1.14;82.59;99140.50;4953114;28;20047;-49
2022/04/02 09:58:10;;;;;;;20.90;9.13;;;;;;;0.96;82.30;99130.34;4963588;28;20035;-50
2022/04/02 10:00:51;;;;;;;19.63;7.90;;;;;;;0.72;80.30;99139.31;4957400;28;20285;-51
2022/04/02 10:03:41;;;;;;;13.32;8.18;;;;;;;1.13;80.91;99141.53;4968101;28;20172;-52
2022/04/02 10:06:12;;;;;;;14.68;8.13;;;;;;;0.89;78.43;99126.78;4954079;28;20126;-52
2022/04/02 10:08:58;;;;;;;13.77;7.57;;;;;;;1.13;76.93;99146.81;4968969;28;20050;-50
2022/04/02 10:11:25;;;;;;;12.07;7.25;;;;;;;0.88;76.71;99146.28;4967355;28;20109;-50
2022/04/02 10:13:50;;;;;;;14.13;8.10;;;;;;;1.27;76.51;99134.56;4963635;28;20046;-51
2022/04/02 10:16:16;;;;;;;13.70;7.75;;;;;;;1.25;77.40;99144.53;4965717;28;20597;-50
2022/04/02 10:18:41;;;;;;;11.10;5.72;;;;;;;1.26;74.18;99146.97;4949525;28;20053;-52
2022/04/02 10:21:07;;;;;;;12.35;7.93;;;;;;;1.55;74.11;99133.88;4962409;28;20043;-53
2022/04/02 10:23:35;;;;;;;16.30;7.65;;;;;;;1.49;74.38;99141.53;4951371;28;20323;-53
2022/04/02 10:26:20;;;;;;;12.00;6.35;;;;;;;1.04;71.51;99142.63;4965507;28;20555;-52
2022/04/02 10:28:51;;;;;;;20.20;8.95;;;;;;;1.15;74.30;99143.97;4966539;28;20061;-51
2022/04/02 10:31:48;;;;;;;14.70;7.07;;;;;;;1.34;74.46;99146.03;4961671;28;20137;-51
2022/04/02 10:34:23;;;;;;;16.45;8.68;;;;;;;1.21;74.55;99137.97;4966658;28;20133;-50
2022/04/02 10:36:55;;;;;;;22.15;8.55;;;;;;;1.11;71.68;99142.72;4961522;28;20056;-53
2022/04/02 10:39:23;;;;;;;14.88;7.82;;;;;;;1.19;73.31;99143.41;4963806;28;20090;-53
2022/04/02 10:42:02;;;;;;;16.75;8.95;;;;;;;1.35;74.24;99150.34;4962682;28;20038;-50
2022/04/02 10:44:33;;;;;;;22.20;9.30;;;;;;;1.03;72.78;99136.53;4958506;28;20104;-52
2022/04/02 10:46:59;;;;;;;18.98;8.32;;;;;;;1.28;74.11;99149.44;4959883;28;20428;-51
2022/04/02 10:49:32;;;;;;;12.40;7.50;;;;;;;1.47;74.84;99148.00;4958406;28;20034;-51
2022/04/02 10:51:58;;;;;;;13.95;5.65;;;;;;;1.23;71.89;99149.97;4956282;28;20117;-50
2022/04/02 10:54:27;;;;;;;17.42;7.47;;;;;;;1.20;71.86;99160.91;4959096;28;20043;-50
2022/04/02 10:56:52;;;;;;;16.42;8.45;;;;;;;0.96;73.13;99153.28;4961769;28;20073;-50
2022/04/02 10:59:19;;;;;;;24.75;10.80;;;;;;;1.24;74.22;99164.00;4961384;28;20043;-52
2022/04/02 11:01:46;;;;;;;15.50;7.80;;;;;;;1.12;70.97;99168.09;4961316;28;20046;-53
2022/04/02 11:04:49;;;;;;;23.65;8.75;;;;;;;1.27;73.39;99164.47;4961153;28;20054;-51
2022/04/02 11:07:26;;;;;;;16.70;8.50;;;;;;;1.68;73.46;99165.75;4962114;28;20050;-51
2022/04/02 11:09:51;;;;;;;14.63;8.27;;;;;;;1.89;71.91;99163.09;4959102;28;20030;-52
2022/04/02 11:12:26;;;;;;;21.08;11.27;;;;;;;1.79;71.11;99167.88;4958416;28;20043;-52
2022/04/02 11:14:52;;;;;;;13.82;7.00;;;;;;;1.63;70.35;99165.50;4957120;28;20095;-51
2022/04/02 11:17:32;;;;;;;18.33;6.53;;;;;;;1.60;68.71;99174.59;4945438;28;20514;-51
2022/04/02 11:20:05;;;;;;;13.25;5.95;;;;;;;1.28;68.40;99181.94;4961440;28;20465;-49
2022/04/02 11:22:50;;;;;;;14.50;6.93;;;;;;;1.69;70.32;99167.38;4959733;28;20098;-53
2022/04/02 11:25:35;;;;;;;21.00;10.73;;;;;;;1.42;66.82;99177.66;4960607;28;20125;-51
2022/04/02 11:28:17;;;;;;;16.77;9.73;;;;;;;2.15;69.79;99177.63;4964322;28;20081;-50
2022/04/02 11:30:52;;;;;;;12.88;6.07;;;;;;;1.51;68.05;99175.72;4961193;28;20047;-54